Welaka, Florida
Current Conditions -  °F | °C
As of 12:15 PM on Friday 19 Dec 2014 (Local Time) from K28J Reporting Station
Clear Clear  
Wind Chill: 18°   Ceiling: Unl
Heat Index: 18°   Visibility: 10mi
Dew Point:   Wind: 3mph
Humidity: 37%   Direction: 70°ENE
Pressure: 30.13"   Gusts: NA
Location:  29.48°N, 81.67°W
Report Text: K28J 191715Z AUTO 07003KT 10SM CLR 18/03 A3013 RMK AO2
Loading
Personal Weather Stations






























Interactive Weather Map New forecast layout! Learn more

10-Day Weather Forecast

Advertisements
Track Severe Weather on mobile